sensor_id;sensor_type;location;lat;lon;timestamp;temperature;humidity
43607;DHT22;29197;44.788;10.366;2022-07-21T00:00:50;30.10;87.70
43607;DHT22;29197;44.788;10.366;2022-07-21T00:03:39;30.20;87.60
43607;DHT22;29197;44.788;10.366;2022-07-21T00:06:28;30.30;87.50
43607;DHT22;29197;44.788;10.366;2022-07-21T00:09:17;30.30;87.90
43607;DHT22;29197;44.788;10.366;2022-07-21T00:12:07;30.40;87.60
43607;DHT22;29197;44.788;10.366;2022-07-21T00:14:58;30.30;87.50
43607;DHT22;29197;44.788;10.366;2022-07-21T00:17:47;30.30;87.80
43607;DHT22;29197;44.788;10.366;2022-07-21T00:20:36;30.20;87.80
43607;DHT22;29197;44.788;10.366;2022-07-21T00:23:26;30.10;87.70
43607;DHT22;29197;44.788;10.366;2022-07-21T00:26:15;29.90;88.20
43607;DHT22;29197;44.788;10.366;2022-07-21T00:29:05;29.90;88.70
43607;DHT22;29197;44.788;10.366;2022-07-21T00:31:55;29.90;88.40
43607;DHT22;29197;44.788;10.366;2022-07-21T00:34:45;29.90;88.30
43607;DHT22;29197;44.788;10.366;2022-07-21T00:37:34;29.80;88.30
43607;DHT22;29197;44.788;10.366;2022-07-21T00:40:23;29.70;88.50
43607;DHT22;29197;44.788;10.366;2022-07-21T00:43:13;29.70;88.60
43607;DHT22;29197;44.788;10.366;2022-07-21T00:48:53;29.50;88.20
43607;DHT22;29197;44.788;10.366;2022-07-21T00:51:43;29.50;89.30
43607;DHT22;29197;44.788;10.366;2022-07-21T00:57:21;29.30;88.90
43607;DHT22;29197;44.788;10.366;2022-07-21T01:00:14;29.20;89.90
43607;DHT22;29197;44.788;10.366;2022-07-21T01:03:04;29.10;90.10
43607;DHT22;29197;44.788;10.366;2022-07-21T01:05:55;29.20;90.00
43607;DHT22;29197;44.788;10.366;2022-07-21T01:08:46;29.30;90.00
43607;DHT22;29197;44.788;10.366;2022-07-21T01:11:36;29.40;89.80
43607;DHT22;29197;44.788;10.366;2022-07-21T01:14:26;29.50;89.70
43607;DHT22;29197;44.788;10.366;2022-07-21T01:17:16;29.60;89.50
43607;DHT22;29197;44.788;10.366;2022-07-21T01:20:08;29.60;89.30
43607;DHT22;29197;44.788;10.366;2022-07-21T01:22:59;29.60;89.20
43607;DHT22;29197;44.788;10.366;2022-07-21T01:25:47;29.70;89.20
43607;DHT22;29197;44.788;10.366;2022-07-21T01:28:37;29.70;89.10
43607;DHT22;29197;44.788;10.366;2022-07-21T01:31:26;29.80;89.20
43607;DHT22;29197;44.788;10.366;2022-07-21T01:34:16;29.80;89.40
43607;DHT22;29197;44.788;10.366;2022-07-21T01:37:05;29.70;89.50
43607;DHT22;29197;44.788;10.366;2022-07-21T01:39:56;29.60;89.50
43607;DHT22;29197;44.788;10.366;2022-07-21T01:43:03;29.60;89.70
43607;DHT22;29197;44.788;10.366;2022-07-21T01:45:58;29.60;89.90
43607;DHT22;29197;44.788;10.366;2022-07-21T01:48:48;29.60;90.00
43607;DHT22;29197;44.788;10.366;2022-07-21T01:51:38;29.60;90.10
43607;DHT22;29197;44.788;10.366;2022-07-21T01:54:28;29.60;90.30
43607;DHT22;29197;44.788;10.366;2022-07-21T01:57:19;29.60;90.40
43607;DHT22;29197;44.788;10.366;2022-07-21T02:00:09;29.50;90.50
43607;DHT22;29197;44.788;10.366;2022-07-21T02:02:59;29.50;90.60
43607;DHT22;29197;44.788;10.366;2022-07-21T02:05:48;29.50;90.80
43607;DHT22;29197;44.788;10.366;2022-07-21T02:08:38;29.50;90.90
43607;DHT22;29197;44.788;10.366;2022-07-21T02:11:27;29.50;90.90
43607;DHT22;29197;44.788;10.366;2022-07-21T02:14:18;29.40;90.90
43607;DHT22;29197;44.788;10.366;2022-07-21T02:17:07;29.40;91.00
43607;DHT22;29197;44.788;10.366;2022-07-21T02:19:56;29.30;91.00
43607;DHT22;29197;44.788;10.366;2022-07-21T02:22:46;29.20;91.00
43607;DHT22;29197;44.788;10.366;2022-07-21T02:25:35;29.20;91.10
43607;DHT22;29197;44.788;10.366;2022-07-21T02:28:25;29.20;91.00
43607;DHT22;29197;44.788;10.366;2022-07-21T02:31:16;29.20;91.20
43607;DHT22;29197;44.788;10.366;2022-07-21T02:34:05;29.20;91.30
43607;DHT22;29197;44.788;10.366;2022-07-21T02:36:55;29.20;91.30
43607;DHT22;29197;44.788;10.366;2022-07-21T02:39:44;29.10;91.20
43607;DHT22;29197;44.788;10.366;2022-07-21T02:42:33;29.10;91.20
43607;DHT22;29197;44.788;10.366;2022-07-21T02:45:23;29.10;91.30
43607;DHT22;29197;44.788;10.366;2022-07-21T02:48:14;29.10;91.30
43607;DHT22;29197;44.788;10.366;2022-07-21T02:51:03;29.10;91.30
43607;DHT22;29197;44.788;10.366;2022-07-21T02:53:55;29.10;91.40
43607;DHT22;29197;44.788;10.366;2022-07-21T02:56:44;29.00;91.40
43607;DHT22;29197;44.788;10.366;2022-07-21T02:59:34;29.00;91.40
43607;DHT22;29197;44.788;10.366;2022-07-21T03:02:24;29.00;91.40
43607;DHT22;29197;44.788;10.366;2022-07-21T03:05:15;29.00;91.50
43607;DHT22;29197;44.788;10.366;2022-07-21T03:08:07;29.00;91.40
43607;DHT22;29197;44.788;10.366;2022-07-21T03:10:57;28.90;91.30
43607;DHT22;29197;44.788;10.366;2022-07-21T03:13:46;28.90;91.40
43607;DHT22;29197;44.788;10.366;2022-07-21T03:16:36;28.90;91.40
43607;DHT22;29197;44.788;10.366;2022-07-21T03:19:25;28.90;91.70
43607;DHT22;29197;44.788;10.366;2022-07-21T03:22:16;28.90;91.90
43607;DHT22;29197;44.788;10.366;2022-07-21T03:25:08;28.80;92.00
43607;DHT22;29197;44.788;10.366;2022-07-21T03:27:57;28.80;92.00
43607;DHT22;29197;44.788;10.366;2022-07-21T03:30:47;28.70;92.10
43607;DHT22;29197;44.788;10.366;2022-07-21T03:33:36;28.70;92.50
43607;DHT22;29197;44.788;10.366;2022-07-21T03:36:26;28.70;92.10
43607;DHT22;29197;44.788;10.366;2022-07-21T03:39:31;28.70;92.20
43607;DHT22;29197;44.788;10.366;2022-07-21T03:42:20;28.60;92.10
43607;DHT22;29197;44.788;10.366;2022-07-21T03:45:10;28.60;92.10
43607;DHT22;29197;44.788;10.366;2022-07-21T03:48:00;28.60;92.30
43607;DHT22;29197;44.788;10.366;2022-07-21T03:50:50;28.60;97.80
43607;DHT22;29197;44.788;10.366;2022-07-21T03:53:39;28.60;92.40
43607;DHT22;29197;44.788;10.366;2022-07-21T03:56:30;28.60;92.60
43607;DHT22;29197;44.788;10.366;2022-07-21T03:59:20;28.60;92.70
43607;DHT22;29197;44.788;10.366;2022-07-21T04:02:09;28.60;99.90
43607;DHT22;29197;44.788;10.366;2022-07-21T04:04:58;28.60;99.90
43607;DHT22;29197;44.788;10.366;2022-07-21T04:07:49;28.60;99.90
43607;DHT22;29197;44.788;10.366;2022-07-21T04:10:39;28.60;92.80
43607;DHT22;29197;44.788;10.366;2022-07-21T04:13:30;28.50;92.80
43607;DHT22;29197;44.788;10.366;2022-07-21T04:16:19;28.50;92.90
43607;DHT22;29197;44.788;10.366;2022-07-21T04:19:09;28.40;93.20
43607;DHT22;29197;44.788;10.366;2022-07-21T04:21:58;28.30;93.50
43607;DHT22;29197;44.788;10.366;2022-07-21T04:27:37;28.00;93.70
43607;DHT22;29197;44.788;10.366;2022-07-21T04:30:28;27.70;94.20
43607;DHT22;29197;44.788;10.366;2022-07-21T04:33:17;27.80;94.30
43607;DHT22;29197;44.788;10.366;2022-07-21T04:36:08;27.90;94.20
43607;DHT22;29197;44.788;10.366;2022-07-21T04:38:57;28.00;94.00
43607;DHT22;29197;44.788;10.366;2022-07-21T04:41:46;28.20;94.10
43607;DHT22;29197;44.788;10.366;2022-07-21T04:44:36;28.20;94.00
43607;DHT22;29197;44.788;10.366;2022-07-21T04:47:27;28.20;94.00
43607;DHT22;29197;44.788;10.366;2022-07-21T04:50:18;28.30;94.00
43607;DHT22;29197;44.788;10.366;2022-07-21T04:53:08;28.30;94.00
43607;DHT22;29197;44.788;10.366;2022-07-21T04:55:58;28.40;94.10
43607;DHT22;29197;44.788;10.366;2022-07-21T04:58:48;28.30;94.10
43607;DHT22;29197;44.788;10.366;2022-07-21T05:01:38;28.40;94.20
43607;DHT22;29197;44.788;10.366;2022-07-21T05:04:29;28.40;94.30
43607;DHT22;29197;44.788;10.366;2022-07-21T05:07:18;28.30;94.30
43607;DHT22;29197;44.788;10.366;2022-07-21T05:10:09;28.30;94.40
43607;DHT22;29197;44.788;10.366;2022-07-21T05:12:59;28.30;94.50
43607;DHT22;29197;44.788;10.366;2022-07-21T05:15:48;28.30;94.70
43607;DHT22;29197;44.788;10.366;2022-07-21T05:18:38;28.30;94.70
43607;DHT22;29197;44.788;10.366;2022-07-21T05:21:29;28.30;94.80
43607;DHT22;29197;44.788;10.366;2022-07-21T05:24:18;28.30;94.80
43607;DHT22;29197;44.788;10.366;2022-07-21T05:27:07;28.30;94.80
43607;DHT22;29197;44.788;10.366;2022-07-21T05:29:57;28.30;94.80
43607;DHT22;29197;44.788;10.366;2022-07-21T05:32:46;28.30;94.80
43607;DHT22;29197;44.788;10.366;2022-07-21T05:35:36;28.30;94.80
43607;DHT22;29197;44.788;10.366;2022-07-21T05:38:26;28.40;95.30
43607;DHT22;29197;44.788;10.366;2022-07-21T05:41:15;28.40;94.80
43607;DHT22;29197;44.788;10.366;2022-07-21T05:44:05;28.40;94.90
43607;DHT22;29197;44.788;10.366;2022-07-21T05:46:55;28.50;94.70
43607;DHT22;29197;44.788;10.366;2022-07-21T05:49:44;28.50;94.70
43607;DHT22;29197;44.788;10.366;2022-07-21T05:52:34;28.50;94.80
43607;DHT22;29197;44.788;10.366;2022-07-21T05:55:24;28.50;94.90
43607;DHT22;29197;44.788;10.366;2022-07-21T05:58:14;28.50;94.90
43607;DHT22;29197;44.788;10.366;2022-07-21T06:01:05;28.60;95.00
43607;DHT22;29197;44.788;10.366;2022-07-21T06:04:00;28.60;95.10
43607;DHT22;29197;44.788;10.366;2022-07-21T06:06:50;28.70;95.10
43607;DHT22;29197;44.788;10.366;2022-07-21T06:09:40;28.70;94.70
43607;DHT22;29197;44.788;10.366;2022-07-21T06:12:30;28.80;94.80
43607;DHT22;29197;44.788;10.366;2022-07-21T06:15:20;28.80;94.60
43607;DHT22;29197;44.788;10.366;2022-07-21T06:18:11;28.90;95.00
43607;DHT22;29197;44.788;10.366;2022-07-21T06:21:00;28.90;95.00
43607;DHT22;29197;44.788;10.366;2022-07-21T06:23:50;29.00;95.10
43607;DHT22;29197;44.788;10.366;2022-07-21T06:26:42;29.10;95.10
43607;DHT22;29197;44.788;10.366;2022-07-21T06:29:35;29.10;94.90
43607;DHT22;29197;44.788;10.366;2022-07-21T06:32:24;29.20;94.60
43607;DHT22;29197;44.788;10.366;2022-07-21T06:35:13;29.30;94.60
43607;DHT22;29197;44.788;10.366;2022-07-21T06:38:03;29.40;94.60
43607;DHT22;29197;44.788;10.366;2022-07-21T06:40:59;29.50;94.70
43607;DHT22;29197;44.788;10.366;2022-07-21T06:43:48;29.60;94.20
43607;DHT22;29197;44.788;10.366;2022-07-21T06:46:39;29.70;94.10
43607;DHT22;29197;44.788;10.366;2022-07-21T06:49:29;29.90;94.20
43607;DHT22;29197;44.788;10.366;2022-07-21T06:52:17;30.00;94.10
43607;DHT22;29197;44.788;10.366;2022-07-21T06:55:08;30.00;93.90
43607;DHT22;29197;44.788;10.366;2022-07-21T06:57:58;30.10;93.60
43607;DHT22;29197;44.788;10.366;2022-07-21T07:00:48;30.20;93.70
43607;DHT22;29197;44.788;10.366;2022-07-21T07:03:39;30.30;93.70
43607;DHT22;29197;44.788;10.366;2022-07-21T07:09:19;30.50;99.90
43607;DHT22;29197;44.788;10.366;2022-07-21T07:12:08;30.60;97.50
43607;DHT22;29197;44.788;10.366;2022-07-21T22:16:09;32.10;93.10
43607;DHT22;29197;44.788;10.366;2022-07-21T22:18:59;32.20;93.00
43607;DHT22;29197;44.788;10.366;2022-07-21T22:21:50;32.20;92.90
43607;DHT22;29197;44.788;10.366;2022-07-21T22:24:40;32.00;91.90
43607;DHT22;29197;44.788;10.366;2022-07-21T22:27:30;32.00;87.70
43607;DHT22;29197;44.788;10.366;2022-07-21T22:30:20;32.00;87.70
43607;DHT22;29197;44.788;10.366;2022-07-21T22:33:11;32.00;87.80
43607;DHT22;29197;44.788;10.366;2022-07-21T22:36:00;32.00;86.60
43607;DHT22;29197;44.788;10.366;2022-07-21T22:38:50;32.00;86.60
43607;DHT22;29197;44.788;10.366;2022-07-21T22:41:40;32.10;85.60
43607;DHT22;29197;44.788;10.366;2022-07-21T22:44:30;32.10;85.10
43607;DHT22;29197;44.788;10.366;2022-07-21T22:50:10;31.70;85.60
43607;DHT22;29197;44.788;10.366;2022-07-21T22:52:59;31.60;87.20
43607;DHT22;29197;44.788;10.366;2022-07-21T22:55:49;31.40;87.50
43607;DHT22;29197;44.788;10.366;2022-07-21T22:58:39;31.30;87.70
43607;DHT22;29197;44.788;10.366;2022-07-21T23:01:28;31.40;88.20
43607;DHT22;29197;44.788;10.366;2022-07-21T23:04:19;31.40;87.90
43607;DHT22;29197;44.788;10.366;2022-07-21T23:07:10;31.40;87.80
43607;DHT22;29197;44.788;10.366;2022-07-21T23:10:00;31.40;87.50
43607;DHT22;29197;44.788;10.366;2022-07-21T23:12:49;31.40;87.40
43607;DHT22;29197;44.788;10.366;2022-07-21T23:15:39;31.50;87.20
43607;DHT22;29197;44.788;10.366;2022-07-21T23:18:28;31.50;87.30
43607;DHT22;29197;44.788;10.366;2022-07-21T23:21:17;31.50;87.40
43607;DHT22;29197;44.788;10.366;2022-07-21T23:24:08;31.50;87.40
43607;DHT22;29197;44.788;10.366;2022-07-21T23:26:57;31.50;87.50
43607;DHT22;29197;44.788;10.366;2022-07-21T23:29:47;31.60;87.60
43607;DHT22;29197;44.788;10.366;2022-07-21T23:32:37;31.60;87.70
43607;DHT22;29197;44.788;10.366;2022-07-21T23:35:27;31.60;87.70
43607;DHT22;29197;44.788;10.366;2022-07-21T23:38:17;31.50;87.70
43607;DHT22;29197;44.788;10.366;2022-07-21T23:41:08;31.50;87.80
43607;DHT22;29197;44.788;10.366;2022-07-21T23:43:58;31.50;88.00
43607;DHT22;29197;44.788;10.366;2022-07-21T23:46:47;31.40;88.10
43607;DHT22;29197;44.788;10.366;2022-07-21T23:49:37;31.40;88.30
43607;DHT22;29197;44.788;10.366;2022-07-21T23:52:26;31.40;88.40
43607;DHT22;29197;44.788;10.366;2022-07-21T23:55:15;31.40;88.40
43607;DHT22;29197;44.788;10.366;2022-07-21T23:58:06;31.40;88.50
